sensor_id;sensor_type;location;lat;lon;timestamp;P1;durP1;ratioP1;P2;durP2;ratioP2
33876;SDS011;20166;51.738;7.158;2024-02-14T00:01:00;5.03;;;2.70;;
33876;SDS011;20166;51.738;7.158;2024-02-14T00:03:47;2.83;;;2.37;;
33876;SDS011;20166;51.738;7.158;2024-02-14T00:06:34;4.07;;;3.20;;
33876;SDS011;20166;51.738;7.158;2024-02-14T00:09:21;3.30;;;2.70;;
33876;SDS011;20166;51.738;7.158;2024-02-14T00:12:08;4.43;;;2.93;;
33876;SDS011;20166;51.738;7.158;2024-02-14T00:14:56;6.93;;;2.93;;
33876;SDS011;20166;51.738;7.158;2024-02-14T00:17:44;3.57;;;2.87;;
33876;SDS011;20166;51.738;7.158;2024-02-14T00:20:31;2.57;;;2.33;;
33876;SDS011;20166;51.738;7.158;2024-02-14T00:23:18;3.93;;;2.97;;
33876;SDS011;20166;51.738;7.158;2024-02-14T00:26:04;4.43;;;2.97;;
33876;SDS011;20166;51.738;7.158;2024-02-14T00:28:51;3.30;;;2.90;;
33876;SDS011;20166;51.738;7.158;2024-02-14T00:31:39;4.40;;;3.20;;
33876;SDS011;20166;51.738;7.158;2024-02-14T00:34:28;10.47;;;3.10;;
33876;SDS011;20166;51.738;7.158;2024-02-14T00:37:15;5.30;;;2.47;;
33876;SDS011;20166;51.738;7.158;2024-02-14T00:40:01;2.90;;;2.37;;
33876;SDS011;20166;51.738;7.158;2024-02-14T00:42:48;3.53;;;2.63;;
33876;SDS011;20166;51.738;7.158;2024-02-14T00:45:35;2.90;;;2.63;;
33876;SDS011;20166;51.738;7.158;2024-02-14T00:48:22;5.03;;;3.00;;
33876;SDS011;20166;51.738;7.158;2024-02-14T00:51:10;4.37;;;2.83;;
33876;SDS011;20166;51.738;7.158;2024-02-14T00:53:57;3.93;;;2.77;;
33876;SDS011;20166;51.738;7.158;2024-02-14T00:56:44;10.70;;;3.23;;
33876;SDS011;20166;51.738;7.158;2024-02-14T00:59:30;2.23;;;2.03;;
33876;SDS011;20166;51.738;7.158;2024-02-14T01:02:17;4.03;;;2.83;;
33876;SDS011;20166;51.738;7.158;2024-02-14T01:05:04;7.93;;;2.57;;
33876;SDS011;20166;51.738;7.158;2024-02-14T01:07:52;3.67;;;2.50;;
33876;SDS011;20166;51.738;7.158;2024-02-14T01:10:40;4.33;;;2.60;;
33876;SDS011;20166;51.738;7.158;2024-02-14T01:13:26;4.20;;;2.87;;
33876;SDS011;20166;51.738;7.158;2024-02-14T01:16:12;3.80;;;2.73;;
33876;SDS011;20166;51.738;7.158;2024-02-14T01:18:59;3.63;;;3.00;;
33876;SDS011;20166;51.738;7.158;2024-02-14T01:21:45;2.97;;;2.23;;
33876;SDS011;20166;51.738;7.158;2024-02-14T01:24:34;3.97;;;2.97;;
33876;SDS011;20166;51.738;7.158;2024-02-14T01:27:21;3.23;;;2.43;;
33876;SDS011;20166;51.738;7.158;2024-02-14T01:30:09;2.93;;;2.30;;
33876;SDS011;20166;51.738;7.158;2024-02-14T01:32:57;3.73;;;2.63;;
33876;SDS011;20166;51.738;7.158;2024-02-14T01:35:43;2.50;;;2.07;;
33876;SDS011;20166;51.738;7.158;2024-02-14T01:38:30;3.77;;;2.17;;
33876;SDS011;20166;51.738;7.158;2024-02-14T01:41:19;7.30;;;2.47;;
33876;SDS011;20166;51.738;7.158;2024-02-14T01:44:07;3.37;;;2.67;;
33876;SDS011;20166;51.738;7.158;2024-02-14T01:46:53;6.67;;;2.30;;
33876;SDS011;20166;51.738;7.158;2024-02-14T01:49:40;3.57;;;2.33;;
33876;SDS011;20166;51.738;7.158;2024-02-14T01:52:29;4.03;;;2.20;;
33876;SDS011;20166;51.738;7.158;2024-02-14T01:55:16;2.57;;;2.30;;
33876;SDS011;20166;51.738;7.158;2024-02-14T01:58:04;4.30;;;2.17;;
33876;SDS011;20166;51.738;7.158;2024-02-14T02:00:51;3.27;;;2.40;;
33876;SDS011;20166;51.738;7.158;2024-02-14T02:03:40;2.53;;;1.73;;
33876;SDS011;20166;51.738;7.158;2024-02-14T02:06:27;2.50;;;1.83;;
33876;SDS011;20166;51.738;7.158;2024-02-14T02:09:14;2.63;;;1.80;;
33876;SDS011;20166;51.738;7.158;2024-02-14T02:12:01;2.80;;;2.50;;
33876;SDS011;20166;51.738;7.158;2024-02-14T02:14:52;3.97;;;2.20;;
33876;SDS011;20166;51.738;7.158;2024-02-14T02:17:39;2.20;;;1.83;;
33876;SDS011;20166;51.738;7.158;2024-02-14T02:20:26;5.00;;;2.10;;
33876;SDS011;20166;51.738;7.158;2024-02-14T02:23:14;3.23;;;2.33;;
33876;SDS011;20166;51.738;7.158;2024-02-14T02:26:01;3.17;;;1.97;;
33876;SDS011;20166;51.738;7.158;2024-02-14T02:28:47;3.67;;;2.10;;
33876;SDS011;20166;51.738;7.158;2024-02-14T02:31:33;1.80;;;1.63;;
33876;SDS011;20166;51.738;7.158;2024-02-14T02:34:20;2.87;;;2.30;;
33876;SDS011;20166;51.738;7.158;2024-02-14T02:37:07;2.13;;;1.80;;
33876;SDS011;20166;51.738;7.158;2024-02-14T02:39:55;3.47;;;1.83;;
33876;SDS011;20166;51.738;7.158;2024-02-14T02:42:42;2.87;;;1.73;;
33876;SDS011;20166;51.738;7.158;2024-02-14T02:45:30;2.07;;;1.87;;
33876;SDS011;20166;51.738;7.158;2024-02-14T02:48:16;2.70;;;2.00;;
33876;SDS011;20166;51.738;7.158;2024-02-14T02:51:03;3.10;;;1.97;;
33876;SDS011;20166;51.738;7.158;2024-02-14T02:53:50;2.83;;;2.30;;
33876;SDS011;20166;51.738;7.158;2024-02-14T02:56:38;3.13;;;2.50;;
33876;SDS011;20166;51.738;7.158;2024-02-14T02:59:25;2.10;;;1.90;;
33876;SDS011;20166;51.738;7.158;2024-02-14T03:02:14;5.70;;;2.03;;
33876;SDS011;20166;51.738;7.158;2024-02-14T03:05:00;3.33;;;2.20;;
33876;SDS011;20166;51.738;7.158;2024-02-14T03:07:48;2.67;;;2.07;;
33876;SDS011;20166;51.738;7.158;2024-02-14T03:10:35;2.37;;;2.03;;
33876;SDS011;20166;51.738;7.158;2024-02-14T03:13:24;3.20;;;2.00;;
33876;SDS011;20166;51.738;7.158;2024-02-14T03:16:11;2.60;;;2.40;;
33876;SDS011;20166;51.738;7.158;2024-02-14T03:18:59;3.00;;;2.10;;
33876;SDS011;20166;51.738;7.158;2024-02-14T03:21:46;3.43;;;2.53;;
33876;SDS011;20166;51.738;7.158;2024-02-14T03:24:32;2.80;;;2.03;;
33876;SDS011;20166;51.738;7.158;2024-02-14T03:27:20;3.00;;;2.60;;
33876;SDS011;20166;51.738;7.158;2024-02-14T03:30:10;3.80;;;2.50;;
33876;SDS011;20166;51.738;7.158;2024-02-14T03:32:58;2.97;;;2.67;;
33876;SDS011;20166;51.738;7.158;2024-02-14T03:35:44;3.87;;;2.47;;
33876;SDS011;20166;51.738;7.158;2024-02-14T03:38:31;2.93;;;2.10;;
33876;SDS011;20166;51.738;7.158;2024-02-14T03:41:17;4.73;;;3.20;;
33876;SDS011;20166;51.738;7.158;2024-02-14T03:44:04;3.30;;;2.57;;
33876;SDS011;20166;51.738;7.158;2024-02-14T03:46:54;3.70;;;2.80;;
33876;SDS011;20166;51.738;7.158;2024-02-14T03:49:40;3.93;;;2.63;;
33876;SDS011;20166;51.738;7.158;2024-02-14T03:52:27;5.53;;;2.60;;
33876;SDS011;20166;51.738;7.158;2024-02-14T03:55:17;6.23;;;2.67;;
33876;SDS011;20166;51.738;7.158;2024-02-14T03:58:04;4.20;;;2.53;;
33876;SDS011;20166;51.738;7.158;2024-02-14T04:00:53;3.10;;;2.67;;
33876;SDS011;20166;51.738;7.158;2024-02-14T04:03:40;4.13;;;2.50;;
33876;SDS011;20166;51.738;7.158;2024-02-14T04:06:27;5.27;;;2.47;;
33876;SDS011;20166;51.738;7.158;2024-02-14T04:09:16;3.73;;;2.77;;
33876;SDS011;20166;51.738;7.158;2024-02-14T04:12:03;4.63;;;3.10;;
33876;SDS011;20166;51.738;7.158;2024-02-14T04:14:50;4.50;;;2.83;;
33876;SDS011;20166;51.738;7.158;2024-02-14T04:17:37;3.10;;;2.67;;
33876;SDS011;20166;51.738;7.158;2024-02-14T04:20:25;3.67;;;2.70;;
33876;SDS011;20166;51.738;7.158;2024-02-14T04:23:11;6.97;;;2.80;;
33876;SDS011;20166;51.738;7.158;2024-02-14T04:25:58;4.67;;;3.40;;
33876;SDS011;20166;51.738;7.158;2024-02-14T04:28:44;4.93;;;3.23;;
33876;SDS011;20166;51.738;7.158;2024-02-14T04:31:30;5.47;;;3.40;;
33876;SDS011;20166;51.738;7.158;2024-02-14T04:34:17;6.73;;;3.90;;
33876;SDS011;20166;51.738;7.158;2024-02-14T04:37:06;4.37;;;3.30;;
33876;SDS011;20166;51.738;7.158;2024-02-14T04:39:55;5.37;;;3.77;;
33876;SDS011;20166;51.738;7.158;2024-02-14T04:42:41;5.40;;;3.50;;
33876;SDS011;20166;51.738;7.158;2024-02-14T04:45:28;7.93;;;4.07;;
33876;SDS011;20166;51.738;7.158;2024-02-14T04:48:15;3.93;;;2.90;;
33876;SDS011;20166;51.738;7.158;2024-02-14T04:51:01;9.13;;;4.60;;
33876;SDS011;20166;51.738;7.158;2024-02-14T04:53:51;7.03;;;4.33;;
33876;SDS011;20166;51.738;7.158;2024-02-14T04:56:38;5.90;;;4.47;;
33876;SDS011;20166;51.738;7.158;2024-02-14T04:59:24;5.27;;;3.60;;
33876;SDS011;20166;51.738;7.158;2024-02-14T05:02:11;5.83;;;4.50;;
33876;SDS011;20166;51.738;7.158;2024-02-14T05:04:58;8.20;;;4.50;;
33876;SDS011;20166;51.738;7.158;2024-02-14T05:07:44;5.67;;;4.10;;
33876;SDS011;20166;51.738;7.158;2024-02-14T05:10:32;6.53;;;5.13;;
33876;SDS011;20166;51.738;7.158;2024-02-14T05:13:19;7.20;;;4.60;;
33876;SDS011;20166;51.738;7.158;2024-02-14T05:16:06;6.13;;;4.13;;
33876;SDS011;20166;51.738;7.158;2024-02-14T05:18:55;6.47;;;4.40;;
33876;SDS011;20166;51.738;7.158;2024-02-14T05:21:41;9.57;;;4.50;;
33876;SDS011;20166;51.738;7.158;2024-02-14T05:24:28;5.30;;;4.23;;
33876;SDS011;20166;51.738;7.158;2024-02-14T05:27:17;7.57;;;4.17;;
33876;SDS011;20166;51.738;7.158;2024-02-14T05:30:04;7.53;;;4.30;;
33876;SDS011;20166;51.738;7.158;2024-02-14T05:32:51;6.23;;;4.37;;
33876;SDS011;20166;51.738;7.158;2024-02-14T05:35:38;6.83;;;4.00;;
33876;SDS011;20166;51.738;7.158;2024-02-14T05:38:24;6.17;;;3.97;;
33876;SDS011;20166;51.738;7.158;2024-02-14T05:41:11;9.23;;;4.93;;
33876;SDS011;20166;51.738;7.158;2024-02-14T05:43:58;7.30;;;4.53;;
33876;SDS011;20166;51.738;7.158;2024-02-14T05:46:45;6.23;;;4.43;;
33876;SDS011;20166;51.738;7.158;2024-02-14T05:49:31;7.23;;;4.43;;
33876;SDS011;20166;51.738;7.158;2024-02-14T05:52:17;8.87;;;5.00;;
33876;SDS011;20166;51.738;7.158;2024-02-14T05:55:04;6.03;;;4.13;;
33876;SDS011;20166;51.738;7.158;2024-02-14T05:57:51;8.67;;;3.93;;
33876;SDS011;20166;51.738;7.158;2024-02-14T06:00:39;8.10;;;5.10;;
33876;SDS011;20166;51.738;7.158;2024-02-14T06:03:26;6.43;;;4.20;;
33876;SDS011;20166;51.738;7.158;2024-02-14T06:06:14;5.20;;;4.30;;
33876;SDS011;20166;51.738;7.158;2024-02-14T06:09:00;4.93;;;3.73;;
33876;SDS011;20166;51.738;7.158;2024-02-14T06:11:54;4.87;;;3.87;;
33876;SDS011;20166;51.738;7.158;2024-02-14T06:14:40;5.73;;;4.13;;
33876;SDS011;20166;51.738;7.158;2024-02-14T06:17:28;7.00;;;4.40;;
33876;SDS011;20166;51.738;7.158;2024-02-14T06:20:15;6.77;;;4.53;;
33876;SDS011;20166;51.738;7.158;2024-02-14T06:23:02;8.17;;;5.13;;
33876;SDS011;20166;51.738;7.158;2024-02-14T06:25:50;6.00;;;4.67;;
33876;SDS011;20166;51.738;7.158;2024-02-14T06:28:36;10.27;;;4.90;;
33876;SDS011;20166;51.738;7.158;2024-02-14T06:31:22;8.27;;;4.83;;
33876;SDS011;20166;51.738;7.158;2024-02-14T06:34:10;8.13;;;5.00;;
33876;SDS011;20166;51.738;7.158;2024-02-14T06:36:57;9.87;;;5.27;;
33876;SDS011;20166;51.738;7.158;2024-02-14T06:39:43;9.90;;;5.17;;
33876;SDS011;20166;51.738;7.158;2024-02-14T06:42:29;7.47;;;5.10;;
33876;SDS011;20166;51.738;7.158;2024-02-14T06:45:16;6.23;;;4.73;;
33876;SDS011;20166;51.738;7.158;2024-02-14T06:48:03;8.13;;;5.63;;
33876;SDS011;20166;51.738;7.158;2024-02-14T06:50:52;8.33;;;6.27;;
33876;SDS011;20166;51.738;7.158;2024-02-14T06:53:38;11.03;;;6.50;;
33876;SDS011;20166;51.738;7.158;2024-02-14T06:56:24;8.10;;;5.33;;
33876;SDS011;20166;51.738;7.158;2024-02-14T06:59:11;11.10;;;6.23;;
33876;SDS011;20166;51.738;7.158;2024-02-14T07:01:57;9.63;;;5.30;;
33876;SDS011;20166;51.738;7.158;2024-02-14T07:04:57;8.53;;;5.30;;
33876;SDS011;20166;51.738;7.158;2024-02-14T07:07:45;9.43;;;6.00;;
33876;SDS011;20166;51.738;7.158;2024-02-14T07:10:32;9.53;;;6.03;;
33876;SDS011;20166;51.738;7.158;2024-02-14T07:13:18;10.27;;;6.10;;
33876;SDS011;20166;51.738;7.158;2024-02-14T07:16:04;7.77;;;5.40;;
33876;SDS011;20166;51.738;7.158;2024-02-14T07:18:55;9.57;;;6.23;;
33876;SDS011;20166;51.738;7.158;2024-02-14T07:21:42;8.87;;;5.77;;
33876;SDS011;20166;51.738;7.158;2024-02-14T07:24:30;9.87;;;6.53;;
33876;SDS011;20166;51.738;7.158;2024-02-14T07:27:16;11.10;;;7.10;;
33876;SDS011;20166;51.738;7.158;2024-02-14T07:30:02;10.40;;;5.77;;
33876;SDS011;20166;51.738;7.158;2024-02-14T07:32:50;9.37;;;6.40;;
33876;SDS011;20166;51.738;7.158;2024-02-14T07:35:37;10.07;;;6.93;;
33876;SDS011;20166;51.738;7.158;2024-02-14T07:38:23;9.57;;;6.37;;
33876;SDS011;20166;51.738;7.158;2024-02-14T07:41:11;11.13;;;7.37;;
33876;SDS011;20166;51.738;7.158;2024-02-14T07:43:57;12.60;;;7.13;;
33876;SDS011;20166;51.738;7.158;2024-02-14T07:46:43;11.93;;;7.10;;
33876;SDS011;20166;51.738;7.158;2024-02-14T07:49:30;11.47;;;7.07;;
33876;SDS011;20166;51.738;7.158;2024-02-14T07:52:16;13.47;;;8.07;;
33876;SDS011;20166;51.738;7.158;2024-02-14T07:55:03;12.73;;;7.83;;
33876;SDS011;20166;51.738;7.158;2024-02-14T07:57:52;11.17;;;7.47;;
33876;SDS011;20166;51.738;7.158;2024-02-14T08:00:42;12.37;;;7.27;;
33876;SDS011;20166;51.738;7.158;2024-02-14T08:03:29;9.93;;;7.10;;
33876;SDS011;20166;51.738;7.158;2024-02-14T08:06:15;12.80;;;7.10;;
33876;SDS011;20166;51.738;7.158;2024-02-14T08:09:02;9.50;;;6.83;;
33876;SDS011;20166;51.738;7.158;2024-02-14T08:11:51;11.73;;;7.00;;
33876;SDS011;20166;51.738;7.158;2024-02-14T08:14:40;10.83;;;7.17;;
33876;SDS011;20166;51.738;7.158;2024-02-14T08:17:26;9.43;;;6.50;;
33876;SDS011;20166;51.738;7.158;2024-02-14T08:20:12;12.13;;;6.87;;
33876;SDS011;20166;51.738;7.158;2024-02-14T08:23:00;13.33;;;7.40;;
33876;SDS011;20166;51.738;7.158;2024-02-14T08:25:46;12.30;;;6.60;;
33876;SDS011;20166;51.738;7.158;2024-02-14T08:28:33;14.37;;;6.53;;
33876;SDS011;20166;51.738;7.158;2024-02-14T08:31:22;14.40;;;8.53;;
33876;SDS011;20166;51.738;7.158;2024-02-14T08:34:09;12.07;;;7.83;;
33876;SDS011;20166;51.738;7.158;2024-02-14T08:36:55;13.97;;;7.63;;
33876;SDS011;20166;51.738;7.158;2024-02-14T08:39:42;12.87;;;8.20;;
33876;SDS011;20166;51.738;7.158;2024-02-14T08:42:28;14.57;;;7.63;;
33876;SDS011;20166;51.738;7.158;2024-02-14T08:45:15;11.80;;;7.83;;
33876;SDS011;20166;51.738;7.158;2024-02-14T08:48:03;11.27;;;7.37;;
33876;SDS011;20166;51.738;7.158;2024-02-14T08:50:50;12.27;;;6.80;;
33876;SDS011;20166;51.738;7.158;2024-02-14T08:53:36;12.93;;;8.03;;
33876;SDS011;20166;51.738;7.158;2024-02-14T08:56:23;12.20;;;7.37;;
33876;SDS011;20166;51.738;7.158;2024-02-14T08:59:09;11.63;;;7.40;;
33876;SDS011;20166;51.738;7.158;2024-02-14T09:01:56;13.37;;;7.43;;
33876;SDS011;20166;51.738;7.158;2024-02-14T09:04:44;11.83;;;7.00;;
33876;SDS011;20166;51.738;7.158;2024-02-14T09:07:30;14.30;;;7.70;;
33876;SDS011;20166;51.738;7.158;2024-02-14T09:10:18;13.77;;;6.50;;
33876;SDS011;20166;51.738;7.158;2024-02-14T09:13:05;13.80;;;7.50;;
33876;SDS011;20166;51.738;7.158;2024-02-14T09:15:52;11.87;;;6.83;;
33876;SDS011;20166;51.738;7.158;2024-02-14T09:18:39;11.50;;;6.73;;
33876;SDS011;20166;51.738;7.158;2024-02-14T09:21:27;15.83;;;7.53;;
33876;SDS011;20166;51.738;7.158;2024-02-14T09:24:14;15.33;;;6.87;;
33876;SDS011;20166;51.738;7.158;2024-02-14T09:27:00;11.03;;;7.30;;
33876;SDS011;20166;51.738;7.158;2024-02-14T09:29:47;10.63;;;6.63;;
33876;SDS011;20166;51.738;7.158;2024-02-14T09:32:34;10.20;;;6.77;;
33876;SDS011;20166;51.738;7.158;2024-02-14T09:35:20;8.43;;;5.73;;
33876;SDS011;20166;51.738;7.158;2024-02-14T09:38:08;10.03;;;7.33;;
33876;SDS011;20166;51.738;7.158;2024-02-14T09:40:55;10.70;;;7.27;;
33876;SDS011;20166;51.738;7.158;2024-02-14T09:43:46;11.27;;;6.93;;
33876;SDS011;20166;51.738;7.158;2024-02-14T09:46:32;13.90;;;7.40;;
33876;SDS011;20166;51.738;7.158;2024-02-14T09:49:22;9.37;;;6.63;;
33876;SDS011;20166;51.738;7.158;2024-02-14T09:52:09;10.10;;;6.53;;
33876;SDS011;20166;51.738;7.158;2024-02-14T09:54:59;9.63;;;6.17;;
33876;SDS011;20166;51.738;7.158;2024-02-14T09:57:49;10.50;;;6.43;;
33876;SDS011;20166;51.738;7.158;2024-02-14T10:00:36;9.03;;;6.33;;
33876;SDS011;20166;51.738;7.158;2024-02-14T10:03:22;11.87;;;6.97;;
33876;SDS011;20166;51.738;7.158;2024-02-14T10:06:10;11.10;;;6.23;;
33876;SDS011;20166;51.738;7.158;2024-02-14T10:08:57;8.93;;;6.47;;
33876;SDS011;20166;51.738;7.158;2024-02-14T10:11:50;9.40;;;6.70;;
33876;SDS011;20166;51.738;7.158;2024-02-14T10:14:37;14.90;;;7.17;;
33876;SDS011;20166;51.738;7.158;2024-02-14T10:17:23;12.60;;;6.47;;
33876;SDS011;20166;51.738;7.158;2024-02-14T10:20:11;12.80;;;6.60;;
33876;SDS011;20166;51.738;7.158;2024-02-14T10:23:03;10.13;;;6.50;;
33876;SDS011;20166;51.738;7.158;2024-02-14T10:25:50;9.17;;;6.73;;
33876;SDS011;20166;51.738;7.158;2024-02-14T10:28:41;9.60;;;6.43;;
33876;SDS011;20166;51.738;7.158;2024-02-14T10:31:33;10.07;;;6.87;;
33876;SDS011;20166;51.738;7.158;2024-02-14T10:34:22;9.20;;;6.07;;
33876;SDS011;20166;51.738;7.158;2024-02-14T10:37:13;11.43;;;7.27;;
33876;SDS011;20166;51.738;7.158;2024-02-14T10:40:01;14.33;;;7.23;;
33876;SDS011;20166;51.738;7.158;2024-02-14T10:42:48;11.23;;;7.33;;
33876;SDS011;20166;51.738;7.158;2024-02-14T10:45:36;12.70;;;8.40;;
33876;SDS011;20166;51.738;7.158;2024-02-14T10:48:24;10.47;;;7.83;;
33876;SDS011;20166;51.738;7.158;2024-02-14T10:51:16;16.17;;;7.43;;
33876;SDS011;20166;51.738;7.158;2024-02-14T10:54:08;13.23;;;7.53;;
33876;SDS011;20166;51.738;7.158;2024-02-14T10:56:57;16.37;;;7.40;;
33876;SDS011;20166;51.738;7.158;2024-02-14T10:59:45;10.00;;;6.33;;
33876;SDS011;20166;51.738;7.158;2024-02-14T11:02:35;11.17;;;6.27;;
33876;SDS011;20166;51.738;7.158;2024-02-14T11:05:22;10.43;;;5.43;;
33876;SDS011;20166;51.738;7.158;2024-02-14T11:08:11;7.87;;;5.13;;
33876;SDS011;20166;51.738;7.158;2024-02-14T11:11:00;8.07;;;5.37;;
33876;SDS011;20166;51.738;7.158;2024-02-14T11:13:47;10.63;;;5.27;;
33876;SDS011;20166;51.738;7.158;2024-02-14T11:16:38;7.63;;;5.07;;
33876;SDS011;20166;51.738;7.158;2024-02-14T11:19:31;7.20;;;4.97;;
33876;SDS011;20166;51.738;7.158;2024-02-14T11:22:21;10.77;;;4.80;;
33876;SDS011;20166;51.738;7.158;2024-02-14T11:25:09;6.80;;;4.33;;
33876;SDS011;20166;51.738;7.158;2024-02-14T11:28:01;8.07;;;5.13;;
33876;SDS011;20166;51.738;7.158;2024-02-14T11:30:59;5.80;;;4.63;;
33876;SDS011;20166;51.738;7.158;2024-02-14T11:33:49;7.90;;;4.20;;
33876;SDS011;20166;51.738;7.158;2024-02-14T11:36:37;5.87;;;4.00;;
33876;SDS011;20166;51.738;7.158;2024-02-14T11:39:25;6.57;;;4.37;;
33876;SDS011;20166;51.738;7.158;2024-02-14T11:42:11;7.70;;;4.30;;
33876;SDS011;20166;51.738;7.158;2024-02-14T11:44:58;11.97;;;4.57;;
33876;SDS011;20166;51.738;7.158;2024-02-14T11:47:45;9.23;;;4.63;;
33876;SDS011;20166;51.738;7.158;2024-02-14T11:50:33;6.63;;;4.53;;
33876;SDS011;20166;51.738;7.158;2024-02-14T11:53:21;9.83;;;5.20;;
33876;SDS011;20166;51.738;7.158;2024-02-14T11:56:08;8.37;;;4.60;;
33876;SDS011;20166;51.738;7.158;2024-02-14T11:58:55;5.80;;;4.27;;
33876;SDS011;20166;51.738;7.158;2024-02-14T12:01:42;11.27;;;4.87;;
33876;SDS011;20166;51.738;7.158;2024-02-14T12:04:31;6.37;;;4.80;;
33876;SDS011;20166;51.738;7.158;2024-02-14T12:07:18;8.27;;;4.60;;
33876;SDS011;20166;51.738;7.158;2024-02-14T12:10:07;6.30;;;4.03;;
33876;SDS011;20166;51.738;7.158;2024-02-14T12:12:57;7.17;;;4.20;;
33876;SDS011;20166;51.738;7.158;2024-02-14T12:15:44;7.20;;;4.73;;
33876;SDS011;20166;51.738;7.158;2024-02-14T12:18:31;6.70;;;4.50;;
33876;SDS011;20166;51.738;7.158;2024-02-14T12:21:19;8.23;;;4.70;;
33876;SDS011;20166;51.738;7.158;2024-02-14T12:24:06;9.30;;;5.03;;
33876;SDS011;20166;51.738;7.158;2024-02-14T12:26:55;7.77;;;4.50;;
33876;SDS011;20166;51.738;7.158;2024-02-14T12:29:45;6.47;;;4.13;;
33876;SDS011;20166;51.738;7.158;2024-02-14T12:32:31;7.23;;;4.13;;
33876;SDS011;20166;51.738;7.158;2024-02-14T12:35:18;7.30;;;3.70;;
33876;SDS011;20166;51.738;7.158;2024-02-14T12:38:05;5.33;;;4.03;;
33876;SDS011;20166;51.738;7.158;2024-02-14T12:40:54;6.97;;;3.87;;
33876;SDS011;20166;51.738;7.158;2024-02-14T12:43:41;5.03;;;3.70;;
33876;SDS011;20166;51.738;7.158;2024-02-14T12:46:28;6.67;;;4.00;;
33876;SDS011;20166;51.738;7.158;2024-02-14T12:49:15;5.03;;;3.80;;
33876;SDS011;20166;51.738;7.158;2024-02-14T12:52:02;6.50;;;3.80;;
33876;SDS011;20166;51.738;7.158;2024-02-14T12:54:50;4.30;;;3.33;;
33876;SDS011;20166;51.738;7.158;2024-02-14T12:57:36;3.83;;;3.20;;
33876;SDS011;20166;51.738;7.158;2024-02-14T13:00:24;5.37;;;3.33;;
33876;SDS011;20166;51.738;7.158;2024-02-14T13:03:11;4.37;;;3.80;;
33876;SDS011;20166;51.738;7.158;2024-02-14T13:06:02;7.13;;;3.57;;
33876;SDS011;20166;51.738;7.158;2024-02-14T13:08:49;3.70;;;3.17;;
33876;SDS011;20166;51.738;7.158;2024-02-14T13:11:36;9.80;;;4.03;;
33876;SDS011;20166;51.738;7.158;2024-02-14T13:14:23;4.87;;;3.13;;
33876;SDS011;20166;51.738;7.158;2024-02-14T13:17:11;8.37;;;3.67;;
33876;SDS011;20166;51.738;7.158;2024-02-14T13:19:57;4.47;;;3.27;;
33876;SDS011;20166;51.738;7.158;2024-02-14T13:22:45;4.73;;;3.67;;
33876;SDS011;20166;51.738;7.158;2024-02-14T13:25:31;3.80;;;3.20;;
33876;SDS011;20166;51.738;7.158;2024-02-14T13:28:18;7.10;;;3.50;;
33876;SDS011;20166;51.738;7.158;2024-02-14T13:31:04;4.67;;;3.83;;
33876;SDS011;20166;51.738;7.158;2024-02-14T13:33:52;4.67;;;3.30;;
33876;SDS011;20166;51.738;7.158;2024-02-14T13:36:39;3.20;;;2.90;;
33876;SDS011;20166;51.738;7.158;2024-02-14T13:39:26;5.10;;;3.00;;
33876;SDS011;20166;51.738;7.158;2024-02-14T13:42:12;5.43;;;2.87;;
33876;SDS011;20166;51.738;7.158;2024-02-14T13:44:58;4.67;;;3.20;;
33876;SDS011;20166;51.738;7.158;2024-02-14T13:47:45;4.73;;;3.53;;
33876;SDS011;20166;51.738;7.158;2024-02-14T13:50:33;4.80;;;3.83;;
33876;SDS011;20166;51.738;7.158;2024-02-14T13:53:20;5.90;;;3.53;;
33876;SDS011;20166;51.738;7.158;2024-02-14T13:56:07;5.43;;;3.93;;
33876;SDS011;20166;51.738;7.158;2024-02-14T13:58:55;5.43;;;3.97;;
33876;SDS011;20166;51.738;7.158;2024-02-14T14:01:41;5.97;;;3.90;;
33876;SDS011;20166;51.738;7.158;2024-02-14T14:04:27;4.93;;;3.33;;
33876;SDS011;20166;51.738;7.158;2024-02-14T14:07:15;5.60;;;3.53;;
33876;SDS011;20166;51.738;7.158;2024-02-14T14:10:02;5.17;;;3.47;;
33876;SDS011;20166;51.738;7.158;2024-02-14T14:12:49;5.53;;;3.53;;
33876;SDS011;20166;51.738;7.158;2024-02-14T14:15:35;3.20;;;2.90;;
33876;SDS011;20166;51.738;7.158;2024-02-14T14:18:22;4.43;;;3.63;;
33876;SDS011;20166;51.738;7.158;2024-02-14T14:21:09;4.43;;;3.40;;
33876;SDS011;20166;51.738;7.158;2024-02-14T14:23:57;7.67;;;4.40;;
33876;SDS011;20166;51.738;7.158;2024-02-14T14:26:43;4.90;;;3.53;;
33876;SDS011;20166;51.738;7.158;2024-02-14T14:29:30;5.13;;;3.73;;
33876;SDS011;20166;51.738;7.158;2024-02-14T14:32:16;4.53;;;3.53;;
33876;SDS011;20166;51.738;7.158;2024-02-14T14:35:03;5.97;;;4.13;;
33876;SDS011;20166;51.738;7.158;2024-02-14T14:37:52;5.87;;;3.73;;
33876;SDS011;20166;51.738;7.158;2024-02-14T14:40:40;4.57;;;3.17;;
33876;SDS011;20166;51.738;7.158;2024-02-14T14:43:26;4.60;;;3.50;;
33876;SDS011;20166;51.738;7.158;2024-02-14T14:46:13;5.30;;;3.30;;
33876;SDS011;20166;51.738;7.158;2024-02-14T14:49:00;5.10;;;3.40;;
33876;SDS011;20166;51.738;7.158;2024-02-14T14:51:47;4.23;;;3.53;;
33876;SDS011;20166;51.738;7.158;2024-02-14T14:54:33;4.73;;;3.40;;
33876;SDS011;20166;51.738;7.158;2024-02-14T14:57:21;6.97;;;3.80;;
33876;SDS011;20166;51.738;7.158;2024-02-14T15:00:08;6.23;;;3.67;;
33876;SDS011;20166;51.738;7.158;2024-02-14T15:02:56;5.07;;;3.90;;
33876;SDS011;20166;51.738;7.158;2024-02-14T15:05:42;6.10;;;4.37;;
33876;SDS011;20166;51.738;7.158;2024-02-14T15:08:28;8.90;;;3.73;;
33876;SDS011;20166;51.738;7.158;2024-02-14T15:11:15;5.83;;;3.73;;
33876;SDS011;20166;51.738;7.158;2024-02-14T15:14:06;4.50;;;3.60;;
33876;SDS011;20166;51.738;7.158;2024-02-14T15:16:52;6.07;;;3.67;;
33876;SDS011;20166;51.738;7.158;2024-02-14T15:19:38;6.10;;;3.93;;
33876;SDS011;20166;51.738;7.158;2024-02-14T15:22:25;4.80;;;3.60;;
33876;SDS011;20166;51.738;7.158;2024-02-14T15:25:14;5.37;;;3.97;;
33876;SDS011;20166;51.738;7.158;2024-02-14T15:28:06;6.27;;;4.30;;
33876;SDS011;20166;51.738;7.158;2024-02-14T15:30:59;5.30;;;4.00;;
33876;SDS011;20166;51.738;7.158;2024-02-14T15:34:03;6.20;;;4.00;;
33876;SDS011;20166;51.738;7.158;2024-02-14T15:36:50;5.53;;;3.63;;
33876;SDS011;20166;51.738;7.158;2024-02-14T15:39:37;5.77;;;3.63;;
33876;SDS011;20166;51.738;7.158;2024-02-14T15:42:24;4.27;;;3.20;;
33876;SDS011;20166;51.738;7.158;2024-02-14T15:45:11;4.47;;;3.57;;
33876;SDS011;20166;51.738;7.158;2024-02-14T15:48:02;4.77;;;3.70;;
33876;SDS011;20166;51.738;7.158;2024-02-14T15:50:49;4.80;;;3.40;;
33876;SDS011;20166;51.738;7.158;2024-02-14T15:53:36;4.37;;;3.60;;
33876;SDS011;20166;51.738;7.158;2024-02-14T15:56:22;4.83;;;3.60;;
33876;SDS011;20166;51.738;7.158;2024-02-14T15:59:12;4.57;;;3.73;;
33876;SDS011;20166;51.738;7.158;2024-02-14T16:02:00;8.87;;;4.07;;
33876;SDS011;20166;51.738;7.158;2024-02-14T16:04:48;6.70;;;4.13;;
33876;SDS011;20166;51.738;7.158;2024-02-14T16:07:34;5.77;;;3.43;;
33876;SDS011;20166;51.738;7.158;2024-02-14T16:10:21;5.43;;;3.70;;
33876;SDS011;20166;51.738;7.158;2024-02-14T16:13:07;4.77;;;3.27;;
33876;SDS011;20166;51.738;7.158;2024-02-14T16:15:54;5.50;;;3.43;;
33876;SDS011;20166;51.738;7.158;2024-02-14T16:18:40;4.63;;;3.47;;
33876;SDS011;20166;51.738;7.158;2024-02-14T16:21:29;4.63;;;3.10;;
33876;SDS011;20166;51.738;7.158;2024-02-14T16:24:15;3.90;;;2.87;;
33876;SDS011;20166;51.738;7.158;2024-02-14T16:27:02;4.07;;;3.27;;
33876;SDS011;20166;51.738;7.158;2024-02-14T16:29:48;4.20;;;3.20;;
33876;SDS011;20166;51.738;7.158;2024-02-14T16:32:35;3.90;;;3.33;;
33876;SDS011;20166;51.738;7.158;2024-02-14T16:35:22;5.20;;;3.70;;
33876;SDS011;20166;51.738;7.158;2024-02-14T16:38:10;6.03;;;4.03;;
33876;SDS011;20166;51.738;7.158;2024-02-14T16:40:57;5.47;;;4.27;;
33876;SDS011;20166;51.738;7.158;2024-02-14T16:43:44;7.00;;;4.30;;
33876;SDS011;20166;51.738;7.158;2024-02-14T16:46:30;5.67;;;4.20;;